Time;durP1;ratioP1;P1;durP2;ratioP2;P2;SDS_P1;SDS_P2;PMS_P1;PMS_P2;Temp;Humidity;BMP_temperature;BMP_pressure;BME280_temperature;BME280_humidity;BME280_pressure;Samples;Min_cycle;Max_cycle;Signal;HPM_P1;HPM_P2
2021/05/08 00:01:39;;;;;;;8.97;3.13;;;6.00;99.90;;;;;;5028701;28;20307;-51
2021/05/08 00:04:07;;;;;;;8.43;3.00;;;6.00;99.90;;;;;;5028699;28;20245;-50
2021/05/08 00:06:34;;;;;;;11.30;3.73;;;6.00;99.90;;;;;;5028612;28;20233;-50
2021/05/08 00:09:06;;;;;;;7.37;3.20;;;6.00;99.90;;;;;;5029165;28;20331;-49
2021/05/08 00:11:34;;;;;;;10.63;3.17;;;6.00;99.90;;;;;;5028540;28;20236;-51
2021/05/08 00:14:02;;;;;;;7.83;2.97;;;5.90;99.90;;;;;;5029407;28;20244;-51
2021/05/08 00:16:29;;;;;;;6.97;3.10;;;5.90;99.90;;;;;;5028291;28;20245;-50
2021/05/08 00:18:57;;;;;;;7.87;3.10;;;5.90;99.90;;;;;;5029053;28;20271;-51
2021/05/08 00:21:26;;;;;;;10.53;3.43;;;5.90;99.90;;;;;;5028032;28;20237;-50
2021/05/08 00:23:53;;;;;;;8.67;3.60;;;6.00;99.90;;;;;;5028772;28;20235;-50
2021/05/08 00:26:21;;;;;;;7.47;3.30;;;5.90;99.90;;;;;;5028578;28;20240;-50
2021/05/08 00:28:48;;;;;;;5.80;3.13;;;5.90;99.90;;;;;;5027659;28;20286;-50
2021/05/08 00:31:16;;;;;;;7.40;3.27;;;5.90;99.90;;;;;;5026308;28;20251;-51
2021/05/08 00:33:43;;;;;;;9.23;3.43;;;5.90;99.90;;;;;;5026996;28;20240;-49
2021/05/08 00:36:11;;;;;;;9.73;3.63;;;5.90;99.90;;;;;;5028221;28;20237;-50
2021/05/08 00:38:39;;;;;;;7.30;3.67;;;5.80;99.90;;;;;;5043544;28;20236;-50
2021/05/08 00:41:07;;;;;;;10.97;3.17;;;5.80;99.90;;;;;;5042661;28;20716;-50
2021/05/08 00:43:37;;;;;;;6.67;3.30;;;5.80;99.90;;;;;;5027979;28;20262;-51
2021/05/08 00:46:04;;;;;;;7.47;3.17;;;5.80;99.90;;;;;;5028005;28;20240;-51
2021/05/08 00:48:33;;;;;;;10.37;3.90;;;5.80;99.90;;;;;;5028000;28;20703;-51
2021/05/08 00:51:01;;;;;;;11.37;3.43;;;5.80;99.90;;;;;;5042918;28;20260;-49
2021/05/08 00:53:28;;;;;;;7.47;3.93;;;5.80;99.90;;;;;;5039558;28;20321;-50
2021/05/08 00:55:56;;;;;;;10.20;4.43;;;5.80;99.90;;;;;;5023700;28;20237;-49
2021/05/08 00:58:25;;;;;;;6.70;3.53;;;5.80;99.90;;;;;;5023238;28;20268;-49
2021/05/08 01:00:55;;;;;;;9.40;3.20;;;5.90;99.90;;;;;;5008211;28;20241;-50
2021/05/08 01:03:25;;;;;;;9.83;3.50;;;5.80;99.90;;;;;;5007058;28;20229;-50
2021/05/08 01:05:53;;;;;;;8.53;3.70;;;5.80;99.90;;;;;;5008116;28;20228;-49
2021/05/08 01:08:21;;;;;;;12.90;5.10;;;5.80;99.90;;;;;;5023044;28;20325;-49
2021/05/08 01:10:49;;;;;;;11.37;3.97;;;5.70;99.90;;;;;;5022300;28;20241;-50
2021/05/08 01:13:19;;;;;;;10.30;4.10;;;5.70;99.90;;;;;;5007957;28;20229;-51
2021/05/08 01:15:48;;;;;;;8.40;3.50;;;5.70;99.90;;;;;;1346650;28;10002846;-50
2021/05/08 01:18:16;;;;;;;12.33;3.73;;;5.70;99.90;;;;;;4660901;28;10000653;-51
2021/05/08 01:20:44;;;;;;;10.20;3.47;;;5.70;99.90;;;;;;5007469;28;21013;-50
2021/05/08 01:23:13;;;;;;;9.70;3.67;;;5.70;99.90;;;;;;5013974;28;20758;-49
2021/05/08 01:25:40;;;;;;;9.30;3.83;;;5.60;99.90;;;;;;5027412;28;20232;-49
2021/05/08 01:28:08;;;;;;;9.93;3.60;;;5.60;99.90;;;;;;5026679;28;20243;-49
2021/05/08 01:30:40;;;;;;;7.00;3.67;;;5.60;99.90;;;;;;5039117;28;20275;-50
2021/05/08 01:33:12;;;;;;;9.47;4.10;;;5.60;99.90;;;;;;5042244;28;20243;-53
2021/05/08 01:35:40;;;;;;;8.17;3.77;;;5.60;99.90;;;;;;5042132;28;20280;-52
2021/05/08 01:38:07;;;;;;;11.43;3.87;;;5.50;99.90;;;;;;5027336;28;20247;-52
2021/05/08 01:40:40;;;;;;;8.20;3.50;;;5.50;99.90;;;;;;5042078;28;20239;-54
2021/05/08 01:43:20;;;;;;;10.00;4.20;;;5.50;99.90;;;;;;5042559;28;20744;-51
2021/05/08 01:45:47;;;;;;;6.63;3.47;;;5.60;99.90;;;;;;5026877;28;20240;-52
2021/05/08 01:48:15;;;;;;;9.33;3.67;;;5.60;99.90;;;;;;5025981;28;20778;-49
2021/05/08 01:50:42;;;;;;;9.93;3.60;;;5.50;99.90;;;;;;5027178;28;20849;-52
2021/05/08 01:53:10;;;;;;;6.50;3.60;;;5.50;99.90;;;;;;5025610;28;20767;-50
2021/05/08 01:55:42;;;;;;;7.13;3.77;;;5.50;99.90;;;;;;5042696;28;20312;-49
2021/05/08 01:58:18;;;;;;;9.17;4.20;;;5.40;99.90;;;;;;5027438;28;20236;-50
2021/05/08 02:00:50;;;;;;;13.70;4.03;;;5.40;99.90;;;;;;5026272;28;20236;-52
2021/05/08 02:03:18;;;;;;;8.17;3.53;;;5.40;99.90;;;;;;5027145;28;20237;-50
2021/05/08 02:05:48;;;;;;;6.10;3.80;;;5.40;99.90;;;;;;5042386;28;20244;-50
2021/05/08 02:08:32;;;;;;;8.07;3.80;;;5.50;99.90;;;;;;5042233;28;20315;-51
2021/05/08 02:11:03;;;;;;;9.57;4.47;;;5.50;99.90;;;;;;5025420;28;20244;-54
2021/05/08 02:13:32;;;;;;;8.07;3.93;;;5.40;99.90;;;;;;5025573;28;20643;-52
2021/05/08 02:15:59;;;;;;;7.67;3.80;;;5.50;99.90;;;;;;5042436;28;20323;-51
2021/05/08 02:18:27;;;;;;;7.53;4.00;;;5.40;99.90;;;;;;5025534;28;20233;-52
2021/05/08 02:20:55;;;;;;;8.63;4.30;;;5.30;99.90;;;;;;5026081;28;20307;-51
2021/05/08 02:23:23;;;;;;;10.10;4.10;;;5.40;99.90;;;;;;5025261;28;20232;-53
2021/05/08 02:25:51;;;;;;;9.10;3.90;;;5.30;99.90;;;;;;5039557;28;20240;-52
2021/05/08 02:28:20;;;;;;;10.40;4.10;;;5.40;99.90;;;;;;5036079;28;20243;-52
2021/05/08 02:30:47;;;;;;;8.90;4.00;;;5.30;99.90;;;;;;5026642;28;20707;-52
2021/05/08 02:33:25;;;;;;;12.47;4.57;;;5.30;99.90;;;;;;5027257;28;20236;-53
2021/05/08 02:35:52;;;;;;;9.97;4.20;;;5.30;99.90;;;;;;5042729;28;20800;-53
2021/05/08 02:38:20;;;;;;;9.13;4.50;;;5.30;99.90;;;;;;5041961;28;20286;-52
2021/05/08 02:40:47;;;;;;;6.93;4.03;;;5.30;99.90;;;;;;5041822;28;20323;-54
2021/05/08 02:43:15;;;;;;;9.83;4.43;;;5.20;99.90;;;;;;5041912;28;20511;-52
2021/05/08 02:45:47;;;;;;;8.83;4.40;;;5.30;99.90;;;;;;5027108;28;20316;-53
2021/05/08 02:48:15;;;;;;;9.67;3.57;;;5.30;99.90;;;;;;5025278;28;20250;-51
2021/05/08 02:50:53;;;;;;;7.93;3.90;;;5.30;99.90;;;;;;5041722;28;20257;-52
2021/05/08 02:53:20;;;;;;;11.70;4.60;;;5.30;99.90;;;;;;5038714;28;20237;-52
2021/05/08 02:55:48;;;;;;;13.93;4.60;;;5.30;99.90;;;;;;5014884;28;20743;-52
2021/05/08 02:58:18;;;;;;;8.53;4.00;;;5.40;99.90;;;;;;5042020;28;20319;-53
2021/05/08 03:00:49;;;;;;;11.90;5.17;;;5.40;99.90;;;;;;5026523;28;20255;-51
2021/05/08 03:03:16;;;;;;;10.80;4.20;;;5.40;99.90;;;;;;5026908;28;20229;-52
2021/05/08 03:05:47;;;;;;;11.43;4.83;;;5.40;99.90;;;;;;5010714;28;20249;-52
2021/05/08 03:08:21;;;;;;;9.57;4.00;;;5.30;99.90;;;;;;5025829;28;20786;-52
2021/05/08 03:10:52;;;;;;;10.87;4.70;;;5.30;99.90;;;;;;5025317;28;20707;-52
2021/05/08 03:13:23;;;;;;;6.47;4.53;;;5.30;99.90;;;;;;5029428;28;20251;-53
2021/05/08 03:15:52;;;;;;;10.13;4.67;;;5.30;99.90;;;;;;5030003;28;20295;-51
2021/05/08 03:18:19;;;;;;;14.23;4.60;;;5.20;99.90;;;;;;5045171;28;20232;-51
2021/05/08 03:20:47;;;;;;;8.90;4.80;;;5.20;99.90;;;;;;5040124;28;20248;-52
2021/05/08 03:23:15;;;;;;;11.30;4.90;;;5.30;99.90;;;;;;5044911;28;20558;-52
2021/05/08 03:25:43;;;;;;;6.67;4.23;;;5.30;99.90;;;;;;5044001;28;20221;-54
2021/05/08 03:28:11;;;;;;;10.67;4.73;;;5.20;99.90;;;;;;5044387;28;20320;-54
2021/05/08 03:30:41;;;;;;;8.27;4.30;;;5.20;99.90;;;;;;5044464;28;20875;-53
2021/05/08 03:33:09;;;;;;;9.30;4.87;;;5.10;99.90;;;;;;5041451;28;20592;-52
2021/05/08 03:35:37;;;;;;;7.53;4.53;;;5.10;99.90;;;;;;5025209;28;20236;-51
2021/05/08 03:38:07;;;;;;;10.57;4.93;;;5.10;99.90;;;;;;5008893;28;20241;-52
2021/05/08 03:40:34;;;;;;;12.97;5.17;;;5.10;99.90;;;;;;5008441;28;20244;-51
2021/05/08 03:43:01;;;;;;;13.33;5.13;;;5.00;99.90;;;;;;5022651;28;20272;-52
2021/05/08 03:45:30;;;;;;;8.90;4.60;;;5.00;99.90;;;;;;5028891;28;20592;-51
2021/05/08 03:48:00;;;;;;;8.60;5.00;;;5.00;99.90;;;;;;5028434;28;20232;-52
2021/05/08 03:50:28;;;;;;;13.23;5.70;;;5.00;99.90;;;;;;5027682;28;20232;-52
2021/05/08 03:52:56;;;;;;;14.80;5.67;;;5.00;99.90;;;;;;5015283;28;20476;-52
2021/05/08 03:55:23;;;;;;;10.47;5.10;;;5.00;99.90;;;;;;5008500;28;20243;-52
2021/05/08 03:57:51;;;;;;;10.93;5.17;;;5.00;99.90;;;;;;5008567;28;20252;-52
2021/05/08 04:00:19;;;;;;;11.23;5.17;;;5.00;99.90;;;;;;5019217;28;20327;-52
2021/05/08 04:02:46;;;;;;;9.80;5.43;;;5.00;99.90;;;;;;5027938;28;20725;-53
2021/05/08 04:05:14;;;;;;;7.20;4.97;;;5.00;99.90;;;;;;5028272;28;20739;-51
2021/05/08 04:07:42;;;;;;;11.33;5.10;;;5.00;99.90;;;;;;5027728;28;20584;-54
2021/05/08 04:10:10;;;;;;;11.87;5.67;;;5.00;99.90;;;;;;5027002;28;20283;-56
2021/05/08 04:12:38;;;;;;;11.17;6.00;;;5.00;99.90;;;;;;5026976;28;20252;-53
2021/05/08 04:15:07;;;;;;;9.43;5.90;;;5.00;99.90;;;;;;5028112;28;20244;-52
2021/05/08 04:17:34;;;;;;;12.03;6.10;;;5.00;99.90;;;;;;5028546;28;20239;-54
2021/05/08 04:20:01;;;;;;;11.17;5.53;;;5.00;99.90;;;;;;5028395;28;20240;-56
2021/05/08 04:22:29;;;;;;;13.13;6.17;;;5.00;99.90;;;;;;5024013;28;20638;-53
2021/05/08 04:24:57;;;;;;;11.00;6.00;;;5.00;99.90;;;;;;5028330;28;20237;-52
2021/05/08 04:27:24;;;;;;;10.30;5.87;;;5.10;99.90;;;;;;5028332;28;20268;-52
2021/05/08 04:29:55;;;;;;;9.90;5.73;;;5.10;99.90;;;;;;5028332;28;20575;-53
2021/05/08 04:32:22;;;;;;;11.63;6.37;;;5.10;99.90;;;;;;5028771;28;20244;-52
2021/05/08 04:34:50;;;;;;;9.07;6.07;;;5.10;99.90;;;;;;5028574;28;20699;-51
2021/05/08 04:37:17;;;;;;;9.47;6.17;;;5.20;99.90;;;;;;5028544;28;20306;-52
2021/05/08 04:39:45;;;;;;;8.33;6.50;;;5.20;99.90;;;;;;5028218;28;20559;-53
2021/05/08 04:42:13;;;;;;;9.87;6.70;;;5.30;99.90;;;;;;5028011;28;20237;-50
2021/05/08 04:44:41;;;;;;;8.20;6.40;;;5.30;99.90;;;;;;5028515;28;20239;-50
2021/05/08 04:47:12;;;;;;;10.93;6.83;;;5.30;99.90;;;;;;5027672;28;20239;-50
2021/05/08 04:49:40;;;;;;;13.37;7.20;;;5.40;99.90;;;;;;5027197;28;20754;-50
2021/05/08 04:52:08;;;;;;;12.00;7.03;;;5.60;99.90;;;;;;5028077;28;20302;-50
2021/05/08 04:54:35;;;;;;;13.67;6.40;;;5.60;99.90;;;;;;5028533;28;20240;-51
2021/05/08 04:57:02;;;;;;;10.53;7.20;;;5.80;99.90;;;;;;5027347;28;20598;-52
2021/05/08 04:59:31;;;;;;;14.23;7.13;;;5.90;99.90;;;;;;5028061;28;20690;-53
2021/05/08 05:01:58;;;;;;;10.97;6.30;;;6.00;99.90;;;;;;5027554;28;20240;-55
2021/05/08 05:04:25;;;;;;;11.10;6.70;;;6.00;99.90;;;;;;5028917;28;20252;-56
2021/05/08 05:06:53;;;;;;;11.10;6.53;;;5.90;99.90;;;;;;5027575;28;20236;-52
2021/05/08 05:09:20;;;;;;;9.87;7.03;;;5.90;99.90;;;;;;5027944;28;20311;-53
2021/05/08 05:11:47;;;;;;;12.30;7.17;;;6.00;99.90;;;;;;5026098;28;20244;-54
2021/05/08 05:14:15;;;;;;;12.80;7.50;;;6.20;99.90;;;;;;5024856;28;20763;-52
2021/05/08 05:16:44;;;;;;;14.00;7.40;;;6.30;99.90;;;;;;5021719;28;20232;-55
2021/05/08 05:19:11;;;;;;;10.23;7.40;;;6.40;99.90;;;;;;5023203;28;20310;-53
2021/05/08 05:21:39;;;;;;;12.83;7.50;;;6.60;99.90;;;;;;5022902;28;21064;-55
2021/05/08 05:24:07;;;;;;;14.33;7.90;;;6.70;99.90;;;;;;5023792;28;20692;-53
2021/05/08 05:26:35;;;;;;;10.63;6.87;;;6.90;99.90;;;;;;5024554;28;20275;-53
2021/05/08 05:29:02;;;;;;;11.83;6.93;;;6.90;99.90;;;;;;5025215;28;20699;-56
2021/05/08 05:31:30;;;;;;;9.93;7.60;;;7.00;99.90;;;;;;5025229;28;20231;-54
2021/05/08 05:33:58;;;;;;;13.70;7.80;;;7.20;99.90;;;;;;5025902;28;20626;-49
2021/05/08 05:36:26;;;;;;;11.13;6.37;;;7.50;99.90;;;;;;5027329;28;20232;-51
2021/05/08 05:38:56;;;;;;;11.67;6.83;;;7.50;99.90;;;;;;5027818;28;20264;-51
2021/05/08 05:41:23;;;;;;;10.63;7.47;;;7.60;99.90;;;;;;5027258;28;20482;-49
2021/05/08 05:43:51;;;;;;;8.43;6.70;;;7.80;99.90;;;;;;5027709;28;20598;-49
2021/05/08 05:46:18;;;;;;;13.53;6.40;;;7.90;99.90;;;;;;5027680;28;20232;-49
2021/05/08 05:48:45;;;;;;;10.03;6.57;;;8.10;99.90;;;;;;5027379;28;20729;-49
2021/05/08 05:51:14;;;;;;;13.80;7.20;;;8.20;99.90;;;;;;5027132;28;20246;-49
2021/05/08 05:53:41;;;;;;;9.90;6.57;;;8.30;99.90;;;;;;5027886;28;20740;-50
2021/05/08 05:56:09;;;;;;;9.10;5.80;;;8.40;99.90;;;;;;5027315;28;20251;-50
2021/05/08 05:58:36;;;;;;;10.93;6.30;;;8.50;99.90;;;;;;5027256;28;20258;-52
2021/05/08 06:01:03;;;;;;;11.70;6.60;;;8.60;99.90;;;;;;5041781;28;20291;-50
2021/05/08 06:03:31;;;;;;;8.47;5.83;;;8.70;99.90;;;;;;5042304;28;20584;-50
2021/05/08 06:05:58;;;;;;;10.53;5.97;;;8.70;99.90;;;;;;5027532;28;20644;-50
2021/05/08 06:08:26;;;;;;;8.13;5.60;;;8.90;99.90;;;;;;5026204;28;20231;-51
2021/05/08 06:10:55;;;;;;;9.40;5.70;;;9.10;99.90;;;;;;5026718;28;20573;-50
2021/05/08 06:13:23;;;;;;;11.00;6.20;;;9.10;99.90;;;;;;5027459;28;20244;-51
2021/05/08 06:15:50;;;;;;;12.17;6.10;;;9.20;99.90;;;;;;5027839;28;20311;-50
2021/05/08 06:18:17;;;;;;;13.90;6.27;;;9.30;99.90;;;;;;5027729;28;20264;-50
2021/05/08 06:20:45;;;;;;;6.97;5.73;;;9.40;99.90;;;;;;5025979;28;20814;-51
2021/05/08 06:23:12;;;;;;;10.27;6.43;;;9.50;99.90;;;;;;5026408;28;20716;-49
2021/05/08 06:25:40;;;;;;;11.93;6.03;;;9.70;99.90;;;;;;5027096;28;20233;-50
2021/05/08 06:28:08;;;;;;;9.13;5.43;;;9.80;99.90;;;;;;5027327;28;20288;-49
2021/05/08 06:30:35;;;;;;;10.57;6.20;;;10.00;99.90;;;;;;5026287;28;20226;-52
2021/05/08 06:33:02;;;;;;;10.90;5.43;;;10.20;99.90;;;;;;5026369;28;20242;-51
2021/05/08 06:35:30;;;;;;;9.00;5.17;;;10.40;99.90;;;;;;5029563;28;20344;-50
2021/05/08 06:37:58;;;;;;;8.07;5.23;;;10.50;99.90;;;;;;5031265;28;20438;-51
2021/05/08 06:40:25;;;;;;;6.73;4.83;;;10.80;99.90;;;;;;5029346;28;20629;-50
2021/05/08 06:42:53;;;;;;;8.00;4.57;;;11.00;99.90;;;;;;5028561;28;20238;-50
2021/05/08 06:45:21;;;;;;;8.43;4.87;;;11.20;99.90;;;;;;5029746;28;20241;-52
2021/05/08 06:47:51;;;;;;;8.80;4.77;;;11.40;99.90;;;;;;5029265;28;20657;-51
2021/05/08 06:50:18;;;;;;;8.83;4.50;;;11.40;99.90;;;;;;5027681;28;20274;-50
2021/05/08 06:52:45;;;;;;;10.63;4.80;;;11.60;99.90;;;;;;5028898;28;20242;-51
2021/05/08 06:55:13;;;;;;;12.40;5.37;;;11.60;99.90;;;;;;5028991;28;20240;-51
2021/05/08 06:57:40;;;;;;;11.33;5.17;;;11.90;99.90;;;;;;5028686;28;20300;-50
2021/05/08 07:00:10;;;;;;;6.10;4.33;;;12.00;99.90;;;;;;5028271;28;20243;-53
2021/05/08 07:02:38;;;;;;;7.73;4.50;;;12.20;99.90;;;;;;5028934;28;20698;-52
2021/05/08 07:05:07;;;;;;;7.03;4.00;;;12.30;99.90;;;;;;5029451;28;20248;-53
2021/05/08 07:07:34;;;;;;;8.37;4.60;;;12.60;99.90;;;;;;5028825;28;20629;-51
2021/05/08 07:10:03;;;;;;;9.50;4.50;;;12.70;99.90;;;;;;5028189;28;20301;-51
2021/05/08 07:12:30;;;;;;;7.23;4.37;;;12.60;99.90;;;;;;5028550;28;20236;-51
2021/05/08 07:14:57;;;;;;;9.70;4.43;;;12.90;99.90;;;;;;5024952;28;20239;-51
2021/05/08 07:17:26;;;;;;;9.77;4.87;;;13.20;99.90;;;;;;5026717;28;20244;-51
2021/05/08 07:19:54;;;;;;;8.53;4.10;;;13.30;99.90;;;;;;5029746;28;20507;-51
2021/05/08 07:22:21;;;;;;;7.00;4.17;;;13.30;99.90;;;;;;5029664;28;20244;-52
2021/05/08 07:24:49;;;;;;;8.70;3.90;;;13.10;99.90;;;;;;5030072;28;20676;-54
2021/05/08 07:27:19;;;;;;;10.03;4.47;;;13.10;99.90;;;;;;5029466;28;20653;-51
2021/05/08 07:29:47;;;;;;;6.37;3.50;;;13.00;99.90;;;;;;5029477;28;20356;-54
2021/05/08 07:32:14;;;;;;;7.53;4.13;;;12.90;99.90;;;;;;5029534;28;20591;-53
2021/05/08 07:34:42;;;;;;;7.07;4.00;;;13.00;99.90;;;;;;5030124;28;20232;-50
2021/05/08 07:37:10;;;;;;;8.40;4.50;;;13.00;99.90;;;;;;5028559;28;20291;-52
2021/05/08 07:39:37;;;;;;;7.90;3.37;;;13.20;99.90;;;;;;5027169;28;20236;-51
2021/05/08 07:42:05;;;;;;;10.73;3.33;;;13.10;99.90;;;;;;5027288;28;20242;-50
2021/05/08 07:44:33;;;;;;;8.77;3.40;;;13.20;99.90;;;;;;5027058;28;20298;-51
2021/05/08 07:47:01;;;;;;;10.57;3.60;;;13.50;99.90;;;;;;5025964;28;20298;-51
2021/05/08 07:49:28;;;;;;;4.80;3.03;;;14.10;99.90;;;;;;5027183;28;20232;-52
2021/05/08 07:51:56;;;;;;;9.70;3.80;;;14.30;99.90;;;;;;5027723;28;20264;-52
2021/05/08 07:54:24;;;;;;;10.90;3.90;;;14.40;99.90;;;;;;5029858;28;20240;-51
2021/05/08 07:56:51;;;;;;;9.03;3.90;;;14.50;99.90;;;;;;5028378;28;20435;-52
2021/05/08 07:59:18;;;;;;;8.33;3.37;;;14.60;99.90;;;;;;5029260;28;20244;-52
2021/05/08 08:01:46;;;;;;;8.47;3.73;;;15.00;99.90;;;;;;5028840;28;20263;-52
2021/05/08 08:04:13;;;;;;;6.60;3.00;;;15.10;99.90;;;;;;5029729;28;20251;-51
2021/05/08 08:06:40;;;;;;;10.33;3.40;;;15.20;99.90;;;;;;5028659;28;20483;-52
2021/05/08 08:09:09;;;;;;;5.47;2.97;;;15.10;99.90;;;;;;5028140;28;20242;-54
2021/05/08 08:11:37;;;;;;;4.13;2.80;;;15.00;99.90;;;;;;5023671;28;20228;-53
2021/05/08 08:14:04;;;;;;;5.43;2.60;;;15.20;99.90;;;;;;5028286;28;20637;-51
2021/05/08 08:16:32;;;;;;;4.23;2.70;;;15.40;99.90;;;;;;5028256;28;20232;-54
2021/05/08 08:19:00;;;;;;;5.23;3.07;;;15.10;99.90;;;;;;5028600;28;20237;-51
2021/05/08 08:21:28;;;;;;;5.03;2.80;;;15.00;99.90;;;;;;5043124;28;20237;-54
2021/05/08 08:23:56;;;;;;;7.70;3.03;;;15.40;99.90;;;;;;5029507;28;20236;-52
2021/05/08 08:26:24;;;;;;;8.23;2.90;;;15.60;99.90;;;;;;5028201;28;20240;-52
2021/05/08 08:28:51;;;;;;;6.93;2.93;;;15.50;99.90;;;;;;5028382;28;20236;-61
2021/05/08 08:31:19;;;;;;;8.03;2.90;;;15.30;99.90;;;;;;5028220;28;20231;-55
2021/05/08 08:33:46;;;;;;;6.53;3.00;;;15.50;99.90;;;;;;5027857;28;20710;-56
2021/05/08 08:36:14;;;;;;;6.47;3.10;;;15.70;99.90;;;;;;5028148;28;20241;-52
2021/05/08 08:38:41;;;;;;;8.73;2.90;;;15.70;99.90;;;;;;5027939;28;20318;-55
2021/05/08 08:41:09;;;;;;;7.03;3.17;;;15.40;99.90;;;;;;5028219;28;20248;-55
2021/05/08 08:43:38;;;;;;;7.50;3.10;;;15.20;99.90;;;;;;5027894;28;20569;-52
2021/05/08 08:46:06;;;;;;;4.73;2.50;;;15.20;99.90;;;;;;5028308;28;20260;-56
2021/05/08 08:48:34;;;;;;;6.43;2.33;;;15.10;99.90;;;;;;5028034;28;20477;-53
2021/05/08 08:51:01;;;;;;;6.97;2.93;;;15.20;99.90;;;;;;5027473;28;20244;-52
2021/05/08 08:53:28;;;;;;;6.17;2.50;;;15.60;99.90;;;;;;5028068;28;20244;-57
2021/05/08 08:55:58;;;;;;;5.83;2.63;;;15.50;99.90;;;;;;5027956;28;20323;-55
2021/05/08 08:58:30;;;;;;;5.87;2.63;;;15.80;99.90;;;;;;5027702;28;20572;-55
2021/05/08 09:00:59;;;;;;;4.93;2.73;;;15.60;99.90;;;;;;5026922;28;20236;-54
2021/05/08 09:03:27;;;;;;;6.93;3.10;;;15.50;99.90;;;;;;5027921;28;20706;-51
2021/05/08 09:05:55;;;;;;;6.77;2.30;;;15.30;99.90;;;;;;5026608;28;20240;-54
2021/05/08 09:08:22;;;;;;;5.03;2.60;;;15.40;99.90;;;;;;5026668;28;20320;-53
2021/05/08 09:10:51;;;;;;;7.90;2.50;;;15.00;99.90;;;;;;5024389;28;20274;-53
2021/05/08 09:13:21;;;;;;;8.50;2.53;;;15.10;99.90;;;;;;5027753;28;20244;-57
2021/05/08 09:15:52;;;;;;;4.90;2.43;;;15.30;99.90;;;;;;5027366;28;20248;-59
2021/05/08 09:18:38;;;;;;;4.77;2.57;;;15.50;99.90;;;;;;5027379;28;20229;-57
2021/05/08 09:21:07;;;;;;;6.00;2.70;;;16.00;99.90;;;;;;5027290;28;20248;-59
2021/05/08 09:23:36;;;;;;;4.97;2.27;;;15.60;99.90;;;;;;5027710;28;20291;-59
2021/05/08 09:26:07;;;;;;;5.40;2.40;;;16.00;99.90;;;;;;5027537;28;20310;-63
2021/05/08 09:28:38;;;;;;;6.78;2.88;;;16.00;99.90;;;;;;5026224;28;20452;-65
2021/05/08 09:31:07;;;;;;;4.67;3.00;;;15.80;99.90;;;;;;5027158;28;20266;-61
2021/05/08 09:33:35;;;;;;;4.93;2.50;;;16.10;99.90;;;;;;5026943;28;20699;-61
2021/05/08 09:36:06;;;;;;;4.73;2.50;;;16.10;99.90;;;;;;5027306;28;20327;-61
2021/05/08 09:38:37;;;;;;;4.57;2.70;;;16.00;99.90;;;;;;5027419;28;20284;-61
2021/05/08 09:41:07;;;;;;;3.13;2.30;;;16.00;99.90;;;;;;5026668;28;20247;-61
2021/05/08 09:43:36;;;;;;;5.20;2.47;;;16.00;99.90;;;;;;5027324;28;20593;-61
2021/05/08 09:46:04;;;;;;;4.37;2.50;;;16.20;99.90;;;;;;5026729;28;20240;-61
2021/05/08 09:48:34;;;;;;;5.03;2.20;;;16.50;99.90;;;;;;5026536;28;20299;-61
2021/05/08 09:51:24;;;;;;;5.97;2.53;;;16.70;99.90;;;;;;5026910;28;20232;-61
2021/05/08 09:53:54;;;;;;;5.47;2.70;;;16.90;99.90;;;;;;5027084;28;20242;-61
2021/05/08 09:56:36;;;;;;;6.37;2.00;;;16.70;99.90;;;;;;5026893;28;20237;-61
2021/05/08 09:59:37;;;;;;;4.10;2.37;;;17.10;99.90;;;;;;5018329;28;20252;-61
2021/05/08 10:02:13;;;;;;;4.47;2.33;;;17.80;99.90;;;;;;4945799;28;20247;-61
2021/05/08 10:04:58;;;;;;;3.57;2.40;;;18.10;99.90;;;;;;4961438;28;20271;-61
2021/05/08 10:07:28;;;;;;;4.53;2.57;;;18.10;99.90;;;;;;5004068;28;20318;-61
2021/05/08 10:09:59;;;;;;;3.53;2.50;;;18.20;99.90;;;;;;5027494;28;20242;-61
2021/05/08 10:12:29;;;;;;;5.40;2.70;;;18.20;99.90;;;;;;5030542;28;20237;-61
2021/05/08 10:14:58;;;;;;;3.97;2.60;;;18.40;99.90;;;;;;5031301;28;20659;-61
2021/05/08 10:17:27;;;;;;;5.03;3.17;;;18.60;99.90;;;;;;5031067;28;20258;-60
2021/05/08 10:20:04;;;;;;;5.97;2.90;;;18.30;99.90;;;;;;5030460;28;20239;-61
2021/05/08 10:22:38;;;;;;;3.83;2.90;;;18.30;99.90;;;;;;5030441;28;20243;-61
2021/05/08 10:25:07;;;;;;;3.87;2.80;;;18.50;99.90;;;;;;5031003;28;20239;-61
2021/05/08 10:27:35;;;;;;;4.57;3.10;;;18.90;99.90;;;;;;5030878;28;20234;-60
2021/05/08 10:30:09;;;;;;;4.93;2.83;;;18.50;99.90;;;;;;5029337;28;20251;-61
2021/05/08 10:32:39;;;;;;;5.93;2.87;;;18.50;99.90;;;;;;5029678;28;20252;-61
2021/05/08 10:35:10;;;;;;;5.23;2.90;;;18.60;99.90;;;;;;5030937;28;20481;-61
2021/05/08 10:37:38;;;;;;;4.87;2.90;;;18.50;99.90;;;;;;5029651;28;20251;-61
2021/05/08 10:40:17;;;;;;;5.90;3.63;;;18.50;99.90;;;;;;5030450;28;20243;-61
2021/05/08 10:42:47;;;;;;;5.83;3.27;;;18.10;99.90;;;;;;5045318;28;20230;-61
2021/05/08 10:45:33;;;;;;;6.17;3.10;;;18.40;99.90;;;;;;5030676;28;20248;-60
2021/05/08 10:48:13;;;;;;;6.23;3.10;;;18.70;99.90;;;;;;5029758;28;20358;-61
2021/05/08 10:50:49;;;;;;;6.13;3.60;;;18.70;99.90;;;;;;5029678;28;20247;-61
2021/05/08 10:53:19;;;;;;;4.90;3.70;;;19.10;99.90;;;;;;5030561;28;20278;-63
2021/05/08 10:55:52;;;;;;;6.27;3.67;;;19.20;98.40;;;;;;5030250;28;20661;-59
2021/05/08 10:58:30;;;;;;;3.93;3.40;;;19.20;95.80;;;;;;5029861;28;20230;-59
2021/05/08 11:01:00;;;;;;;5.00;3.33;;;19.30;97.90;;;;;;5027225;28;20647;-58
2021/05/08 11:03:29;;;;;;;4.57;3.43;;;19.30;99.40;;;;;;5030095;28;20339;-58
2021/05/08 11:06:00;;;;;;;7.20;3.53;;;19.40;99.20;;;;;;5027523;28;20235;-57
2021/05/08 11:08:43;;;;;;;4.97;3.60;;;19.50;99.10;;;;;;5029595;28;20320;-60
2021/05/08 11:11:15;;;;;;;6.07;4.20;;;19.40;96.00;;;;;;5027935;28;20959;-60
2021/05/08 11:13:56;;;;;;;5.67;3.57;;;19.20;94.90;;;;;;5030217;28;20233;-60
2021/05/08 11:16:25;;;;;;;5.40;4.10;;;19.10;96.90;;;;;;5045048;28;20296;-59
2021/05/08 11:18:54;;;;;;;5.93;4.10;;;19.20;96.50;;;;;;5029843;28;20630;-60
2021/05/08 11:21:48;;;;;;;5.53;3.70;;;19.10;95.40;;;;;;5027959;28;20247;-59
2021/05/08 11:24:38;;;;;;;5.83;3.97;;;18.90;94.20;;;;;;5016332;28;20243;-60
2021/05/08 11:27:24;;;;;;;5.87;3.50;;;18.60;93.40;;;;;;5029619;28;20243;-59
2021/05/08 11:29:53;;;;;;;6.40;3.80;;;18.70;95.50;;;;;;5029245;28;20253;-60
2021/05/08 11:32:20;;;;;;;6.30;3.30;;;18.60;94.10;;;;;;5029785;28;20258;-60
2021/05/08 11:34:47;;;;;;;4.63;3.20;;;18.80;93.60;;;;;;5029418;28;20235;-60
2021/05/08 11:37:15;;;;;;;5.40;3.47;;;18.60;93.80;;;;;;5029416;28;20389;-60
2021/05/08 11:39:45;;;;;;;6.90;4.17;;;18.60;95.40;;;;;;5028479;28;20996;-60
2021/05/08 11:42:16;;;;;;;5.77;3.57;;;18.80;95.50;;;;;;5027748;28;20278;-60
2021/05/08 11:44:45;;;;;;;7.23;3.53;;;18.90;95.00;;;;;;5028617;28;20704;-59
2021/05/08 11:47:29;;;;;;;5.07;3.50;;;18.70;94.90;;;;;;5027707;28;20778;-59
2021/05/08 11:50:03;;;;;;;4.83;3.63;;;18.80;94.10;;;;;;5027510;28;20269;-60
2021/05/08 11:52:37;;;;;;;5.57;3.10;;;18.50;90.60;;;;;;5027414;28;20746;-59
2021/05/08 11:55:16;;;;;;;5.87;3.63;;;18.30;91.80;;;;;;5028107;28;20248;-58
2021/05/08 11:57:50;;;;;;;4.53;3.27;;;18.50;92.20;;;;;;5027060;28;20231;-59
2021/05/08 12:00:19;;;;;;;5.40;3.70;;;18.30;92.00;;;;;;5027392;28;20239;-58
2021/05/08 12:02:48;;;;;;;6.33;3.50;;;18.00;89.30;;;;;;5025716;28;20257;-60
2021/05/08 12:05:16;;;;;;;6.03;3.85;;;17.90;91.50;;;;;;5023683;28;20464;-60
2021/05/08 12:07:44;;;;;;;5.37;3.20;;;17.60;91.70;;;;;;5027281;28;20235;-57
2021/05/08 12:10:18;;;;;;;3.47;3.00;;;17.90;92.80;;;;;;5026899;28;20855;-57
2021/05/08 12:12:47;;;;;;;4.63;3.00;;;18.20;93.20;;;;;;5027474;28;20255;-55
2021/05/08 12:15:23;;;;;;;5.33;3.43;;;18.40;91.20;;;;;;5027291;28;20267;-59
2021/05/08 12:17:53;;;;;;;5.53;3.47;;;18.20;90.60;;;;;;5027377;28;20706;-57
2021/05/08 12:20:23;;;;;;;4.13;2.93;;;18.30;91.80;;;;;;5027207;28;20301;-56
2021/05/08 12:22:52;;;;;;;4.53;3.03;;;18.20;88.20;;;;;;5027076;28;20602;-58
2021/05/08 12:25:22;;;;;;;5.90;3.60;;;18.10;91.60;;;;;;5027729;28;20239;-58
2021/05/08 12:28:12;;;;;;;3.30;3.00;;;18.00;89.90;;;;;;5027115;28;20727;-57
2021/05/08 12:30:40;;;;;;;5.37;3.50;;;18.10;91.30;;;;;;5025540;28;20305;-58
2021/05/08 12:33:16;;;;;;;3.27;2.50;;;17.90;90.40;;;;;;5027448;28;20239;-57
2021/05/08 12:35:44;;;;;;;6.10;3.57;;;17.90;91.30;;;;;;5027617;28;20297;-55
2021/05/08 12:38:12;;;;;;;4.87;3.53;;;17.80;91.00;;;;;;5027116;28;20331;-56
2021/05/08 12:40:40;;;;;;;4.20;2.80;;;17.70;92.40;;;;;;5025763;28;20312;-58
2021/05/08 12:43:09;;;;;;;3.90;3.20;;;17.70;91.20;;;;;;5026906;28;20325;-59
2021/05/08 12:46:01;;;;;;;4.57;3.10;;;17.60;87.10;;;;;;5027299;28;20237;-58
2021/05/08 12:48:30;;;;;;;6.37;3.60;;;17.50;89.70;;;;;;5023252;28;20802;-59
2021/05/08 12:50:57;;;;;;;4.63;3.03;;;17.30;86.90;;;;;;5026880;28;20481;-58
2021/05/08 12:53:25;;;;;;;4.17;2.60;;;17.30;90.30;;;;;;5027025;28;20239;-59
2021/05/08 12:56:06;;;;;;;4.97;3.30;;;17.30;90.40;;;;;;5026217;28;20317;-55
2021/05/08 12:58:35;;;;;;;6.90;3.37;;;16.80;89.50;;;;;;5025516;28;20768;-56
2021/05/08 13:01:04;;;;;;;5.17;3.07;;;16.90;90.80;;;;;;5021654;28;20257;-58